createdAt,value
2022-09-06T00:01:40.287Z,15.35
2022-09-06T00:04:06.580Z,15.34
2022-09-06T00:06:33.023Z,15.30
2022-09-06T00:08:59.245Z,15.27
2022-09-06T00:11:25.496Z,15.22
2022-09-06T00:13:51.716Z,15.19
2022-09-06T00:16:18.019Z,15.17
2022-09-06T00:18:44.283Z,15.15
2022-09-06T00:21:10.535Z,15.10
2022-09-06T00:23:36.762Z,15.07
2022-09-06T00:26:03.001Z,15.01
2022-09-06T00:28:29.249Z,14.95
2022-09-06T00:30:55.536Z,14.92
2022-09-06T00:33:21.831Z,14.88
2022-09-06T00:35:48.105Z,14.86
2022-09-06T00:38:14.338Z,14.82
2022-09-06T00:40:40.667Z,14.78
2022-09-06T00:43:06.895Z,14.75
2022-09-06T00:45:33.204Z,14.70
2022-09-06T00:47:59.515Z,14.67
2022-09-06T00:50:25.782Z,14.64
2022-09-06T00:52:52.015Z,14.62
2022-09-06T00:55:18.316Z,14.59
2022-09-06T00:57:44.567Z,14.54
2022-09-06T01:00:10.923Z,14.52
2022-09-06T01:02:37.258Z,14.48
2022-09-06T01:05:03.559Z,14.45
2022-09-06T01:07:29.932Z,14.38
2022-09-06T01:09:56.140Z,14.34
2022-09-06T01:12:22.432Z,14.33
2022-09-06T01:14:48.839Z,14.31
2022-09-06T01:17:15.105Z,14.27
2022-09-06T01:19:41.372Z,14.24
2022-09-06T01:22:07.658Z,14.22
2022-09-06T01:24:33.892Z,14.20
2022-09-06T01:27:00.137Z,14.20
2022-09-06T01:29:26.367Z,14.19
2022-09-06T01:31:52.603Z,14.19
2022-09-06T01:34:18.843Z,14.21
2022-09-06T01:37:06.311Z,14.20
2022-09-06T01:39:31.418Z,14.20
2022-09-06T01:41:57.736Z,14.21
2022-09-06T01:44:23.992Z,14.22
2022-09-06T01:46:50.299Z,14.26
2022-09-06T01:49:16.728Z,14.27
2022-09-06T01:51:43.001Z,14.23
2022-09-06T01:54:09.275Z,14.20
2022-09-06T01:56:35.561Z,14.20
2022-09-06T01:59:01.798Z,14.18
2022-09-06T02:01:28.112Z,14.16
2022-09-06T02:03:54.429Z,14.14
2022-09-06T02:06:20.667Z,14.11
2022-09-06T02:08:46.892Z,14.07
2022-09-06T02:11:13.148Z,14.06
2022-09-06T02:13:39.387Z,14.03
2022-09-06T02:16:05.636Z,14.03
2022-09-06T02:18:31.847Z,13.97
2022-09-06T02:20:58.114Z,13.94
2022-09-06T02:23:24.348Z,13.92
2022-09-06T02:25:50.621Z,13.90
2022-09-06T02:28:16.903Z,13.86
2022-09-06T02:30:43.179Z,13.86
2022-09-06T02:33:09.462Z,13.84
2022-09-06T02:35:35.712Z,13.83
2022-09-06T02:38:01.938Z,13.80
2022-09-06T02:40:28.175Z,13.81
2022-09-06T02:42:54.402Z,13.81
2022-09-06T02:45:20.685Z,13.82
2022-09-06T02:47:46.939Z,13.84
2022-09-06T02:50:13.174Z,13.84
2022-09-06T02:52:39.447Z,13.83
2022-09-06T02:55:05.690Z,13.82
2022-09-06T02:57:31.945Z,13.83
2022-09-06T02:59:58.223Z,13.78
2022-09-06T03:02:24.525Z,13.74
2022-09-06T03:04:50.785Z,13.69
2022-09-06T03:07:17.035Z,13.65
2022-09-06T03:09:43.318Z,13.62
2022-09-06T03:12:09.571Z,13.62
2022-09-06T03:14:35.802Z,13.59
2022-09-06T03:17:02.098Z,13.55
2022-09-06T03:19:28.339Z,13.54
2022-09-06T03:21:54.575Z,13.51
2022-09-06T03:24:20.823Z,13.51
2022-09-06T03:26:47.142Z,13.52
2022-09-06T03:29:13.444Z,13.51
2022-09-06T03:31:39.706Z,13.47
2022-09-06T03:34:10.305Z,13.45
2022-09-06T03:36:37.295Z,13.44
2022-09-06T03:39:03.526Z,13.43
2022-09-06T03:41:29.767Z,13.43
2022-09-06T03:43:56.003Z,13.40
2022-09-06T03:46:22.294Z,13.42
2022-09-06T03:48:48.558Z,13.39
2022-09-06T03:51:14.798Z,13.34
2022-09-06T03:53:41.027Z,13.31
2022-09-06T03:56:07.310Z,13.30
2022-09-06T03:58:33.537Z,13.27
2022-09-06T04:00:59.865Z,13.26
2022-09-06T04:03:26.137Z,13.27
2022-09-06T04:05:52.379Z,13.26
2022-09-06T04:08:18.593Z,13.24
2022-09-06T04:10:44.919Z,13.25
2022-09-06T04:13:11.140Z,13.24
2022-09-06T04:15:37.447Z,13.25
2022-09-06T04:18:08.554Z,13.26
2022-09-06T04:20:35.512Z,13.26
2022-09-06T04:23:01.809Z,13.23
2022-09-06T04:25:28.142Z,13.22
2022-09-06T04:27:54.454Z,13.18
2022-09-06T04:30:20.824Z,13.16
2022-09-06T04:32:47.060Z,13.16
2022-09-06T04:35:13.450Z,13.13
2022-09-06T04:37:39.738Z,13.13
2022-09-06T04:40:06.224Z,13.11
2022-09-06T04:42:32.475Z,13.08
2022-09-06T04:44:58.721Z,13.09
2022-09-06T04:47:25.037Z,13.10
2022-09-06T04:49:51.286Z,13.07
2022-09-06T04:52:17.531Z,13.05
2022-09-06T04:54:43.805Z,13.00
2022-09-06T04:57:10.011Z,12.98
2022-09-06T04:59:36.276Z,12.96
2022-09-06T05:02:02.594Z,12.97
2022-09-06T05:04:28.874Z,12.96
2022-09-06T05:06:55.293Z,12.96
2022-09-06T05:09:21.584Z,12.99
2022-09-06T05:11:47.877Z,13.01
2022-09-06T05:14:14.178Z,13.02
2022-09-06T05:16:40.472Z,13.04
2022-09-06T05:19:06.877Z,13.05
2022-09-06T05:21:33.111Z,13.07
2022-09-06T05:23:59.342Z,13.09
2022-09-06T05:26:25.577Z,13.11
2022-09-06T05:28:51.846Z,13.13
2022-09-06T05:31:18.160Z,13.14
2022-09-06T05:33:44.426Z,13.20
2022-09-06T05:36:10.732Z,13.22
2022-09-06T05:38:36.985Z,13.27
2022-09-06T05:41:03.261Z,13.31
2022-09-06T05:43:29.476Z,13.33
2022-09-06T05:45:55.823Z,13.37
2022-09-06T05:48:22.212Z,13.42
2022-09-06T05:50:48.534Z,13.47
2022-09-06T05:53:14.785Z,13.49
2022-09-06T05:55:43.055Z,13.51
2022-09-06T05:58:09.474Z,13.56
2022-09-06T06:00:35.745Z,13.60
2022-09-06T06:03:01.952Z,13.63
2022-09-06T06:05:28.185Z,13.67
2022-09-06T06:07:54.401Z,13.67
2022-09-06T06:10:20.661Z,13.68
2022-09-06T06:12:46.932Z,13.69
2022-09-06T06:15:13.194Z,13.68
2022-09-06T06:17:39.414Z,13.65
2022-09-06T06:20:05.651Z,13.65
2022-09-06T06:22:31.869Z,13.67
2022-09-06T06:24:58.166Z,13.73
2022-09-06T06:27:24.405Z,13.78
2022-09-06T06:29:50.646Z,13.83
2022-09-06T06:32:16.882Z,13.94
2022-09-06T06:34:43.107Z,14.00
2022-09-06T06:37:09.332Z,14.07
2022-09-06T06:39:35.708Z,14.15
2022-09-06T06:42:01.987Z,14.19
2022-09-06T06:44:28.311Z,14.28
2022-09-06T06:46:54.545Z,14.38
2022-09-06T06:49:21.114Z,14.45
2022-09-06T06:51:47.507Z,14.53
2022-09-06T06:54:13.921Z,14.56
2022-09-06T06:56:40.208Z,14.60
2022-09-06T06:59:06.466Z,14.65
2022-09-06T07:01:32.861Z,14.68
2022-09-06T07:03:59.204Z,14.73
2022-09-06T07:09:11.699Z,14.81
2022-09-06T07:11:37.921Z,14.85
2022-09-06T07:14:04.172Z,14.93
2022-09-06T07:16:30.454Z,14.99
2022-09-06T07:18:56.733Z,15.06
2022-09-06T07:21:38.598Z,15.13
2022-09-06T07:26:31.621Z,15.27
2022-09-06T07:28:58.076Z,15.33
2022-09-06T07:34:10.538Z,15.42
2022-09-06T07:36:36.796Z,15.44
2022-09-06T07:39:03.065Z,15.45
2022-09-06T07:41:29.470Z,15.48
2022-09-06T07:43:55.831Z,15.48
2022-09-06T07:46:22.203Z,15.51
2022-09-06T07:48:48.641Z,15.52
2022-09-06T07:51:14.867Z,15.56
2022-09-06T07:53:41.122Z,15.61
2022-09-06T07:56:07.387Z,15.69
2022-09-06T07:58:33.627Z,15.77
2022-09-06T08:00:59.943Z,15.81
2022-09-06T08:03:26.260Z,15.85
2022-09-06T08:11:20.303Z,16.11
2022-09-06T08:13:46.555Z,16.17
2022-09-06T08:16:12.843Z,16.25
2022-09-06T08:18:39.251Z,16.33
2022-09-06T08:21:09.028Z,16.40
2022-09-06T08:23:37.854Z,16.52
2022-09-06T08:26:04.168Z,16.59
2022-09-06T08:28:30.435Z,16.62
2022-09-06T08:30:56.727Z,16.68
2022-09-06T08:33:23.067Z,16.78
2022-09-06T08:35:49.347Z,16.87
2022-09-06T08:38:15.595Z,16.91
2022-09-06T08:40:41.852Z,16.92
2022-09-06T08:43:08.102Z,16.99
2022-09-06T08:45:34.355Z,17.07
2022-09-06T08:48:00.584Z,17.13
2022-09-06T08:50:26.835Z,17.16
2022-09-06T08:53:16.355Z,17.23
2022-09-06T08:55:39.308Z,17.33
2022-09-06T08:58:05.582Z,17.44
2022-09-06T09:00:31.935Z,17.51
2022-09-06T09:02:58.207Z,17.61
2022-09-06T09:05:24.470Z,17.67
2022-09-06T09:07:50.745Z,17.79
2022-09-06T09:10:17.038Z,17.92
2022-09-06T09:12:43.352Z,18.03
2022-09-06T09:15:09.652Z,17.99
2022-09-06T09:17:35.876Z,18.05
2022-09-06T09:20:02.150Z,18.02
2022-09-06T09:22:28.381Z,18.01
2022-09-06T09:24:54.716Z,18.08
2022-09-06T09:27:23.701Z,18.10
2022-09-06T09:32:36.357Z,18.27
2022-09-06T09:35:02.656Z,18.37
2022-09-06T09:40:15.286Z,18.59
2022-09-06T09:42:41.544Z,18.70
2022-09-06T09:45:07.929Z,18.81
2022-09-06T09:47:36.517Z,18.89
2022-09-06T09:50:02.918Z,18.97
2022-09-06T09:52:29.195Z,19.06
2022-09-06T09:54:55.557Z,19.15
2022-09-06T09:57:21.806Z,19.19
2022-09-06T09:59:48.150Z,19.23
2022-09-06T10:02:14.591Z,19.25
2022-09-06T10:07:08.466Z,19.30
2022-09-06T10:09:35.147Z,19.31
2022-09-06T10:12:01.434Z,19.28
2022-09-06T10:14:27.810Z,19.32
2022-09-06T10:16:54.172Z,19.38
2022-09-06T10:19:20.459Z,19.41
2022-09-06T10:21:46.689Z,19.47
2022-09-06T10:24:28.237Z,19.53
2022-09-06T10:26:54.557Z,19.59
2022-09-06T10:29:20.869Z,19.56
2022-09-06T10:31:47.162Z,19.53
2022-09-06T10:34:13.469Z,19.53
2022-09-06T10:36:39.739Z,19.48
2022-09-06T10:39:06.020Z,19.47
2022-09-06T10:41:32.412Z,19.48
2022-09-06T10:43:58.672Z,19.52
2022-09-06T10:46:24.945Z,19.51
2022-09-06T10:48:51.275Z,19.53
2022-09-06T10:51:17.514Z,19.56
2022-09-06T10:53:43.901Z,19.62
2022-09-06T10:56:10.203Z,19.65
2022-09-06T11:01:22.722Z,19.78
2022-09-06T11:04:00.012Z,19.84
2022-09-06T11:06:30.585Z,19.87
2022-09-06T11:08:58.303Z,19.91
2022-09-06T11:11:24.748Z,20.02
2022-09-06T11:13:51.068Z,20.12
2022-09-06T11:16:17.361Z,20.22
2022-09-06T11:18:43.649Z,20.35
2022-09-06T11:21:09.931Z,20.53
2022-09-06T11:23:36.205Z,20.74
2022-09-06T11:26:02.431Z,20.86
2022-09-06T11:28:28.715Z,20.88
2022-09-06T11:30:55.023Z,20.94
2022-09-06T11:33:21.539Z,20.86
2022-09-06T11:35:47.793Z,20.77
2022-09-06T11:38:14.095Z,20.65
2022-09-06T11:40:40.320Z,20.58
2022-09-06T11:43:06.549Z,20.52
2022-09-06T11:45:37.182Z,20.52
2022-09-06T11:48:03.490Z,20.55
2022-09-06T11:50:29.721Z,20.58
2022-09-06T11:52:55.966Z,20.57
2022-09-06T11:55:23.658Z,20.54
2022-09-06T11:57:49.929Z,20.51
2022-09-06T12:00:16.290Z,20.53
2022-09-06T12:02:42.664Z,20.48
2022-09-06T12:05:08.991Z,20.45
2022-09-06T12:07:35.243Z,20.47
2022-09-06T12:10:01.566Z,20.55
2022-09-06T12:12:27.805Z,20.62
2022-09-06T12:14:54.052Z,20.67
2022-09-06T12:17:20.347Z,20.72
2022-09-06T12:19:46.625Z,20.72
2022-09-06T12:22:12.891Z,20.74
2022-09-06T12:24:39.199Z,20.79
2022-09-06T12:27:05.475Z,20.85
2022-09-06T12:29:31.736Z,20.90
2022-09-06T12:31:58.011Z,20.97
2022-09-06T12:34:24.822Z,20.97
2022-09-06T12:36:51.114Z,21.02
2022-09-06T12:39:17.708Z,21.02
2022-09-06T12:41:44.057Z,21.08
2022-09-06T12:44:10.288Z,21.09
2022-09-06T12:46:36.677Z,21.13
2022-09-06T12:49:03.024Z,21.19
2022-09-06T12:51:29.319Z,21.28
2022-09-06T12:53:55.602Z,21.36
2022-09-06T12:56:21.943Z,21.44
2022-09-06T12:58:48.176Z,21.62
2022-09-06T13:01:14.577Z,21.78
2022-09-06T13:03:40.833Z,21.85
2022-09-06T13:06:07.094Z,21.95
2022-09-06T13:08:33.552Z,22.01
2022-09-06T13:10:59.822Z,22.20
2022-09-06T13:13:26.071Z,22.37
2022-09-06T13:15:52.401Z,22.44
2022-09-06T13:18:18.654Z,22.56
2022-09-06T13:20:44.912Z,22.60
2022-09-06T13:23:11.171Z,22.67
2022-09-06T13:25:37.447Z,22.65
2022-09-06T13:28:03.743Z,22.66
2022-09-06T13:30:30.066Z,22.54
2022-09-06T13:32:56.354Z,22.39
2022-09-06T13:35:22.637Z,22.28
2022-09-06T13:37:48.904Z,22.13
2022-09-06T13:40:15.321Z,22.03
2022-09-06T13:42:41.691Z,21.94
2022-09-06T13:45:08.075Z,21.93
2022-09-06T13:47:34.330Z,21.85
2022-09-06T13:50:00.651Z,21.88
2022-09-06T13:52:26.993Z,21.92
2022-09-06T13:54:53.244Z,21.96
2022-09-06T13:57:24.157Z,21.98
2022-09-06T13:59:51.031Z,22.02
2022-09-06T14:02:17.693Z,22.12
2022-09-06T14:04:44.089Z,22.25
2022-09-06T14:07:10.622Z,22.56
2022-09-06T14:09:36.938Z,22.96
2022-09-06T14:12:03.398Z,23.30
2022-09-06T14:14:29.754Z,23.38
2022-09-06T14:16:56.087Z,23.38
2022-09-06T14:19:22.406Z,23.31
2022-09-06T14:21:48.812Z,23.20
2022-09-06T14:24:15.187Z,23.05
2022-09-06T14:26:41.485Z,22.90
2022-09-06T14:29:07.890Z,22.71
2022-09-06T14:31:34.286Z,22.69
2022-09-06T14:34:00.749Z,22.84
2022-09-06T14:36:27.170Z,22.99
2022-09-06T14:38:53.520Z,23.11
2022-09-06T14:41:19.876Z,23.16
2022-09-06T14:43:46.335Z,23.15
2022-09-06T14:46:12.719Z,23.22
2022-09-06T14:48:42.131Z,23.44
2022-09-06T14:51:08.902Z,23.60
2022-09-06T14:53:40.751Z,23.66
2022-09-06T14:56:07.269Z,23.66
2022-09-06T14:58:33.587Z,23.58
2022-09-06T15:00:59.973Z,23.49
2022-09-06T15:03:26.405Z,23.34
2022-09-06T15:05:52.829Z,23.39
2022-09-06T15:08:19.281Z,23.54
2022-09-06T15:10:45.580Z,23.76
2022-09-06T15:13:12.025Z,24.01
2022-09-06T15:15:38.388Z,24.28
2022-09-06T15:18:04.876Z,24.49
2022-09-06T15:20:31.208Z,24.68
2022-09-06T15:23:21.771Z,24.83
2022-09-06T15:25:43.843Z,24.77
2022-09-06T15:28:10.271Z,24.62
2022-09-06T15:30:36.693Z,24.48
2022-09-06T15:33:03.018Z,24.48
2022-09-06T15:35:29.365Z,24.48
2022-09-06T15:37:55.619Z,24.39
2022-09-06T15:40:21.918Z,24.32
2022-09-06T15:42:48.142Z,24.03
2022-09-06T15:45:14.447Z,23.75
2022-09-06T15:47:40.685Z,23.57
2022-09-06T15:50:06.976Z,23.38
2022-09-06T15:52:33.320Z,23.26
2022-09-06T15:54:59.663Z,23.15
2022-09-06T15:57:26.102Z,23.13
2022-09-06T15:59:52.436Z,23.16
2022-09-06T16:02:18.783Z,23.14
2022-09-06T16:04:45.127Z,23.03
2022-09-06T16:07:11.482Z,22.95
2022-09-06T16:09:37.984Z,22.86
2022-09-06T16:12:04.436Z,22.74
2022-09-06T16:14:30.790Z,22.61
2022-09-06T16:16:57.046Z,22.52
2022-09-06T16:19:23.309Z,22.32
2022-09-06T16:21:49.531Z,22.23
2022-09-06T16:24:15.765Z,22.13
2022-09-06T16:26:41.986Z,21.96
2022-09-06T16:29:08.223Z,21.86
2022-09-06T16:31:39.314Z,21.77
2022-09-06T16:34:06.253Z,21.68
2022-09-06T16:36:32.505Z,21.55
2022-09-06T16:38:58.735Z,21.48
2022-09-06T16:41:24.992Z,21.40
2022-09-06T16:43:51.244Z,21.34
2022-09-06T16:46:17.523Z,21.27
2022-09-06T16:48:43.784Z,21.17
2022-09-06T16:51:10.033Z,21.06
2022-09-06T16:53:36.262Z,20.98
2022-09-06T16:56:02.504Z,20.94
2022-09-06T16:58:28.813Z,20.88
2022-09-06T17:00:55.138Z,20.79
2022-09-06T17:03:21.438Z,20.73
2022-09-06T17:05:47.681Z,20.65
2022-09-06T17:08:13.911Z,20.58
2022-09-06T17:10:40.186Z,20.53
2022-09-06T17:13:06.471Z,20.48
2022-09-06T17:15:32.718Z,20.43
2022-09-06T17:17:58.948Z,20.38
2022-09-06T17:20:25.196Z,20.32
2022-09-06T17:22:51.431Z,20.30
2022-09-06T17:25:17.676Z,20.23
2022-09-06T17:27:43.904Z,20.17
2022-09-06T17:30:10.155Z,20.12
2022-09-06T17:32:36.379Z,20.09
2022-09-06T17:35:02.651Z,20.04
2022-09-06T17:37:28.869Z,20.00
2022-09-06T17:39:55.152Z,19.97
2022-09-06T17:42:21.406Z,19.93
2022-09-06T17:44:47.672Z,19.90
2022-09-06T17:47:14.359Z,19.87
2022-09-06T17:49:40.854Z,19.83
2022-09-06T17:52:07.164Z,19.79
2022-09-06T17:54:33.558Z,19.76
2022-09-06T17:56:59.948Z,19.72
2022-09-06T17:59:26.213Z,19.69
2022-09-06T18:01:52.460Z,19.65
2022-09-06T18:04:18.708Z,19.63
2022-09-06T18:06:44.926Z,19.59
2022-09-06T18:09:11.176Z,19.55
2022-09-06T18:11:37.438Z,19.53
2022-09-06T18:14:03.679Z,19.48
2022-09-06T18:16:29.954Z,19.46
2022-09-06T18:18:56.221Z,19.44
2022-09-06T18:21:22.467Z,19.43
2022-09-06T18:23:48.828Z,19.40
2022-09-06T18:26:15.057Z,19.34
2022-09-06T18:28:41.433Z,19.28
2022-09-06T18:31:07.713Z,19.25
2022-09-06T18:33:34.031Z,19.20
2022-09-06T18:36:00.249Z,19.14
2022-09-06T18:38:26.574Z,19.11
2022-09-06T18:40:52.850Z,19.08
2022-09-06T18:43:19.087Z,19.02
2022-09-06T18:45:45.377Z,18.98
2022-09-06T18:48:11.619Z,18.95
2022-09-06T18:50:37.847Z,18.92
2022-09-06T18:53:04.059Z,18.90
2022-09-06T18:55:30.283Z,18.87
2022-09-06T18:57:56.498Z,18.83
2022-09-06T19:00:22.742Z,18.81
2022-09-06T19:02:48.954Z,18.78
2022-09-06T19:05:15.266Z,18.76
2022-09-06T19:07:41.543Z,18.72
2022-09-06T19:10:07.919Z,18.69
2022-09-06T19:12:34.174Z,18.65
2022-09-06T19:15:00.512Z,18.61
2022-09-06T19:17:26.848Z,18.57
2022-09-06T19:19:53.238Z,18.52
2022-09-06T19:22:19.521Z,18.47
2022-09-06T19:24:46.019Z,18.43
2022-09-06T19:27:12.464Z,18.40
2022-09-06T19:29:47.032Z,18.38
2022-09-06T19:32:13.322Z,18.35
2022-09-06T19:34:39.610Z,18.33
2022-09-06T19:37:05.816Z,18.31
2022-09-06T19:39:36.846Z,18.29
2022-09-06T19:42:03.476Z,18.26
2022-09-06T19:44:29.848Z,18.24
2022-09-06T19:46:56.202Z,18.23
2022-09-06T19:49:22.578Z,18.20
2022-09-06T19:51:49.028Z,18.18
2022-09-06T19:54:16.056Z,18.16
2022-09-06T19:56:42.380Z,18.14
2022-09-06T19:59:08.796Z,18.13
2022-09-06T20:01:35.116Z,18.11
2022-09-06T20:04:01.508Z,18.08
2022-09-06T20:06:27.775Z,18.06
2022-09-06T20:08:54.243Z,18.04
2022-09-06T20:11:20.707Z,18.02
2022-09-06T20:13:47.037Z,17.99
2022-09-06T20:16:13.434Z,17.96
2022-09-06T20:18:39.967Z,17.94
2022-09-06T20:21:06.295Z,17.92
2022-09-06T20:23:32.627Z,17.91
2022-09-06T20:26:01.614Z,17.88
2022-09-06T20:28:28.004Z,17.87
2022-09-06T20:30:54.288Z,17.84
2022-09-06T20:33:20.550Z,17.82
2022-09-06T20:35:46.797Z,17.79
2022-09-06T20:38:13.045Z,17.78
2022-09-06T20:40:39.328Z,17.74
2022-09-06T20:43:05.786Z,17.73
2022-09-06T20:45:32.238Z,17.71
2022-09-06T20:47:58.549Z,17.70
2022-09-06T20:50:24.811Z,17.69
2022-09-06T20:52:51.133Z,17.66
2022-09-06T20:55:17.434Z,17.64
2022-09-06T20:57:43.883Z,17.61
2022-09-06T21:00:13.776Z,17.60
2022-09-06T21:02:40.823Z,17.57
2022-09-06T21:05:07.119Z,17.56
2022-09-06T21:07:33.425Z,17.55
2022-09-06T21:09:59.711Z,17.54
2022-09-06T21:12:28.362Z,17.52
2022-09-06T21:14:54.708Z,17.52
2022-09-06T21:17:21.705Z,17.48
2022-09-06T21:19:48.021Z,17.47
2022-09-06T21:22:14.288Z,17.45
2022-09-06T21:24:42.986Z,17.43
2022-09-06T21:27:09.275Z,17.41
2022-09-06T21:29:35.614Z,17.39
2022-09-06T21:32:01.911Z,17.37
2022-09-06T21:34:28.203Z,17.35
2022-09-06T21:36:54.577Z,17.33
2022-09-06T21:39:20.921Z,17.31
2022-09-06T21:41:47.214Z,17.29
2022-09-06T21:44:13.598Z,17.28
2022-09-06T21:46:39.880Z,17.27
2022-09-06T21:49:06.348Z,17.25
2022-09-06T21:51:32.755Z,17.22
2022-09-06T21:53:59.276Z,17.19
2022-09-06T21:56:25.628Z,17.17
2022-09-06T21:58:51.968Z,17.16
2022-09-06T22:01:18.341Z,17.15
2022-09-06T22:03:44.948Z,17.14
2022-09-06T22:06:11.235Z,17.12
2022-09-06T22:08:37.589Z,17.09
2022-09-06T22:11:03.868Z,17.08
2022-09-06T22:13:30.152Z,17.07
2022-09-06T22:15:56.489Z,17.06
2022-09-06T22:18:22.782Z,17.05
2022-09-06T22:20:49.265Z,17.05
2022-09-06T22:23:15.757Z,17.03
2022-09-06T22:25:42.331Z,17.03
2022-09-06T22:28:09.539Z,17.01
2022-09-06T22:30:35.883Z,17.00
2022-09-06T22:33:02.202Z,17.00
2022-09-06T22:35:28.529Z,16.99
2022-09-06T22:37:54.837Z,17.00
2022-09-06T22:40:21.130Z,16.99
2022-09-06T22:42:47.420Z,16.99
2022-09-06T22:45:13.737Z,16.97
2022-09-06T22:47:39.978Z,16.97
2022-09-06T22:50:06.274Z,16.95
2022-09-06T22:52:32.712Z,16.94
2022-09-06T22:54:59.040Z,16.93
2022-09-06T22:57:25.334Z,16.91
2022-09-06T22:59:51.681Z,16.86
2022-09-06T23:02:18.067Z,16.80
2022-09-06T23:04:44.511Z,16.76
2022-09-06T23:07:10.949Z,16.71
2022-09-06T23:09:37.282Z,16.68
2022-09-06T23:12:03.637Z,16.65
2022-09-06T23:14:30.010Z,16.62
2022-09-06T23:16:56.361Z,16.60
2022-09-06T23:19:22.748Z,16.57
2022-09-06T23:21:49.022Z,16.53
2022-09-06T23:24:15.295Z,16.52
2022-09-06T23:26:41.589Z,16.49
2022-09-06T23:29:07.893Z,16.47
2022-09-06T23:31:34.436Z,16.44
2022-09-06T23:34:00.936Z,16.41
2022-09-06T23:36:27.368Z,16.37
2022-09-06T23:38:53.884Z,16.36
2022-09-06T23:41:20.176Z,16.32
2022-09-06T23:43:46.464Z,16.28
2022-09-06T23:46:12.809Z,16.26
2022-09-06T23:48:39.226Z,16.26
2022-09-06T23:51:05.443Z,16.23
2022-09-06T23:53:31.681Z,16.22
2022-09-06T23:55:57.973Z,16.20
2022-09-06T23:58:24.396Z,16.18
